CSN6709 ZJHK-ZSAM
Flight info
| Callsign | CSN6709 |
|---|---|
| Flight time | 1h 21m |
| Altitude | 33100 |
| Route | SAMAS G221 BIGRO R200 BEBEM A470 TEBON |
| Aircraft | A321/M-SDE3FGHIRWY/LB1 |
Departure
| Time | 2026-04-28 06:27 |
|---|---|
| Airport | Haikou Meilan International Airport (ZJHK) |
Arrival
| Time | 2026-04-28 07:49 |
|---|---|
| Airport | Xiamen Gaoqi International Airport (ZSAM) |
| Time | Latitude | Longitude | Altitude | Speed | Heading |
|---|---|---|---|---|---|
| 2026-04-28 05:56 | 19.94857 | 110.45683 | 58 ft | 0 kts | 179° |
| 2026-04-28 06:15 | 19.94874 | 110.45682 | 53 ft | 4 kts | 179° |
| 2026-04-28 06:16 | 19.94901 | 110.45682 | 52 ft | 4 kts | 179° |
| 2026-04-28 06:16 | 19.94928 | 110.45681 | 52 ft | 4 kts | 179° |
| 2026-04-28 06:16 | 19.94951 | 110.45681 | 55 ft | 4 kts | 196° |
| 2026-04-28 06:16 | 19.94968 | 110.45694 | 52 ft | 4 kts | 265° |
| 2026-04-28 06:17 | 19.94965 | 110.45722 | 50 ft | 4 kts | 276° |
| 2026-04-28 06:17 | 19.94965 | 110.45731 | 50 ft | 0 kts | 270° |
| 2026-04-28 06:23 | 19.94965 | 110.45729 | 50 ft | 1 kts | 270° |
| 2026-04-28 06:23 | 19.94964 | 110.45693 | 54 ft | 12 kts | 270° |
| 2026-04-28 06:23 | 19.94988 | 110.45599 | 55 ft | 15 kts | 314° |
| 2026-04-28 06:24 | 19.95068 | 110.45535 | 52 ft | 10 kts | 351° |
| 2026-04-28 06:24 | 19.95139 | 110.45533 | 53 ft | 11 kts | 1° |
| 2026-04-28 06:24 | 19.95201 | 110.45508 | 51 ft | 10 kts | 294° |
| 2026-04-28 06:24 | 19.95203 | 110.45431 | 55 ft | 12 kts | 269° |
| 2026-04-28 06:25 | 19.95202 | 110.45302 | 54 ft | 22 kts | 270° |
| 2026-04-28 06:25 | 19.95205 | 110.45142 | 53 ft | 22 kts | 268° |
| 2026-04-28 06:25 | 19.95202 | 110.44981 | 52 ft | 22 kts | 269° |
| 2026-04-28 06:25 | 19.95205 | 110.44841 | 52 ft | 12 kts | 297° |
| 2026-04-28 06:26 | 19.95281 | 110.44822 | 50 ft | 12 kts | 1° |
| 2026-04-28 06:26 | 19.95363 | 110.44857 | 49 ft | 13 kts | 46° |
| 2026-04-28 06:26 | 19.95370 | 110.44927 | 50 ft | 9 kts | 91° |
| 2026-04-28 06:26 | 19.95373 | 110.45181 | 53 ft | 66 kts | 90° |
| 2026-04-28 06:27 | 19.95374 | 110.45884 | 57 ft | 122 kts | 90° |
| 2026-04-28 06:27 | 19.95382 | 110.46950 | 60 ft | 165 kts | 90° |
| 2026-04-28 06:27 | 19.95378 | 110.48259 | 316 ft | 179 kts | 90° |
| 2026-04-28 06:27 | 19.95596 | 110.49544 | 921 ft | 182 kts | 68° |
| 2026-04-28 06:28 | 19.96446 | 110.50550 | 1482 ft | 188 kts | 38° |
| 2026-04-28 06:28 | 19.97557 | 110.51298 | 1924 ft | 194 kts | 32° |
| 2026-04-28 06:28 | 19.98783 | 110.52044 | 2057 ft | 212 kts | 31° |
| 2026-04-28 06:28 | 20.00106 | 110.52857 | 2184 ft | 232 kts | 32° |
| 2026-04-28 06:29 | 20.01551 | 110.53775 | 2311 ft | 251 kts | 33° |
| 2026-04-28 06:29 | 20.03067 | 110.54769 | 2696 ft | 258 kts | 33° |
| 2026-04-28 06:29 | 20.04589 | 110.55791 | 3294 ft | 260 kts | 33° |
| 2026-04-28 06:29 | 20.06117 | 110.56836 | 3859 ft | 263 kts | 33° |
| 2026-04-28 06:30 | 20.07654 | 110.57897 | 4467 ft | 266 kts | 33° |
| 2026-04-28 06:30 | 20.09288 | 110.58821 | 5015 ft | 268 kts | 18° |
| 2026-04-28 06:30 | 20.11120 | 110.59221 | 5515 ft | 271 kts | 0° |
| 2026-04-28 06:30 | 20.13004 | 110.59026 | 5942 ft | 275 kts | 343° |
| 2026-04-28 06:31 | 20.14845 | 110.58543 | 6476 ft | 277 kts | 343° |
| 2026-04-28 06:31 | 20.16727 | 110.58059 | 7028 ft | 279 kts | 343° |
| 2026-04-28 06:31 | 20.18618 | 110.57576 | 7578 ft | 281 kts | 343° |
| 2026-04-28 06:31 | 20.20524 | 110.57090 | 8121 ft | 282 kts | 343° |
| 2026-04-28 06:32 | 20.22439 | 110.56605 | 8689 ft | 284 kts | 342° |
| 2026-04-28 06:32 | 20.24366 | 110.56120 | 9236 ft | 285 kts | 342° |
| 2026-04-28 06:32 | 20.26301 | 110.55633 | 9782 ft | 286 kts | 342° |
| 2026-04-28 06:32 | 20.28246 | 110.55142 | 10265 ft | 288 kts | 342° |
| 2026-04-28 06:33 | 20.30177 | 110.54653 | 10739 ft | 290 kts | 342° |
| 2026-04-28 06:33 | 20.32144 | 110.54156 | 11212 ft | 292 kts | 342° |
| 2026-04-28 06:33 | 20.34127 | 110.53656 | 11695 ft | 294 kts | 342° |
| 2026-04-28 06:33 | 20.36123 | 110.53151 | 12160 ft | 296 kts | 342° |
| 2026-04-28 06:34 | 20.38150 | 110.52634 | 12436 ft | 306 kts | 342° |
| 2026-04-28 06:34 | 20.40271 | 110.52089 | 12573 ft | 321 kts | 342° |
| 2026-04-28 06:34 | 20.42493 | 110.51518 | 12716 ft | 336 kts | 343° |
| 2026-04-28 06:34 | 20.44818 | 110.50944 | 12851 ft | 351 kts | 347° |
| 2026-04-28 06:35 | 20.47310 | 110.50782 | 12987 ft | 369 kts | 1° |
| 2026-04-28 06:35 | 20.49847 | 110.51285 | 13132 ft | 385 kts | 15° |
| 2026-04-28 06:35 | 20.52302 | 110.52515 | 13470 ft | 395 kts | 31° |
| 2026-04-28 06:35 | 20.54430 | 110.54402 | 13857 ft | 402 kts | 46° |
| 2026-04-28 06:36 | 20.56274 | 110.56666 | 14212 ft | 406 kts | 48° |
| 2026-04-28 06:36 | 20.58121 | 110.58961 | 14602 ft | 409 kts | 47° |
| 2026-04-28 06:36 | 20.59975 | 110.61269 | 15005 ft | 411 kts | 48° |
| 2026-04-28 06:36 | 20.61840 | 110.63594 | 15414 ft | 413 kts | 47° |
| 2026-04-28 06:37 | 20.63713 | 110.65933 | 15829 ft | 415 kts | 47° |
| 2026-04-28 06:37 | 20.65570 | 110.68249 | 16222 ft | 418 kts | 47° |
| 2026-04-28 06:37 | 20.67467 | 110.70614 | 16623 ft | 420 kts | 47° |
| 2026-04-28 06:37 | 20.69375 | 110.72991 | 17026 ft | 422 kts | 47° |
| 2026-04-28 06:38 | 20.71293 | 110.75379 | 17429 ft | 425 kts | 47° |
| 2026-04-28 06:38 | 20.73219 | 110.77782 | 17824 ft | 427 kts | 47° |
| 2026-04-28 06:38 | 20.75158 | 110.80204 | 18199 ft | 430 kts | 47° |
| 2026-04-28 06:38 | 20.77105 | 110.82637 | 18530 ft | 432 kts | 47° |
| 2026-04-28 06:39 | 20.79060 | 110.85081 | 18864 ft | 434 kts | 47° |
| 2026-04-28 06:39 | 20.81003 | 110.87514 | 19208 ft | 436 kts | 47° |
| 2026-04-28 06:39 | 20.82979 | 110.89982 | 19539 ft | 439 kts | 47° |
| 2026-04-28 06:39 | 20.84969 | 110.92467 | 19865 ft | 441 kts | 47° |
| 2026-04-28 06:40 | 20.86967 | 110.94965 | 20202 ft | 443 kts | 47° |
| 2026-04-28 06:40 | 20.88972 | 110.97475 | 20511 ft | 445 kts | 47° |
| 2026-04-28 06:40 | 20.90990 | 111.00003 | 20808 ft | 447 kts | 47° |
| 2026-04-28 06:40 | 20.93011 | 111.02537 | 21120 ft | 449 kts | 47° |
| 2026-04-28 06:41 | 20.95044 | 111.05086 | 21403 ft | 451 kts | 47° |
| 2026-04-28 06:41 | 20.97064 | 111.07611 | 21684 ft | 453 kts | 47° |
| 2026-04-28 06:41 | 20.99125 | 111.10176 | 21967 ft | 455 kts | 47° |
| 2026-04-28 06:41 | 21.01194 | 111.12749 | 22244 ft | 457 kts | 47° |
| 2026-04-28 06:42 | 21.03272 | 111.15335 | 22522 ft | 459 kts | 47° |
| 2026-04-28 06:42 | 21.05359 | 111.17931 | 22789 ft | 461 kts | 47° |
| 2026-04-28 06:42 | 21.07455 | 111.20542 | 23062 ft | 463 kts | 47° |
| 2026-04-28 06:42 | 21.09557 | 111.23161 | 23339 ft | 465 kts | 47° |
| 2026-04-28 06:43 | 21.11665 | 111.25789 | 23576 ft | 466 kts | 47° |
| 2026-04-28 06:43 | 21.13751 | 111.28394 | 23789 ft | 468 kts | 47° |
| 2026-04-28 06:43 | 21.15875 | 111.31047 | 24012 ft | 469 kts | 47° |
| 2026-04-28 06:43 | 21.18003 | 111.33707 | 24232 ft | 471 kts | 47° |
| 2026-04-28 06:44 | 21.20137 | 111.36374 | 24452 ft | 473 kts | 47° |
| 2026-04-28 06:44 | 21.22281 | 111.39057 | 24665 ft | 474 kts | 47° |
| 2026-04-28 06:44 | 21.24428 | 111.41748 | 24889 ft | 476 kts | 47° |
| 2026-04-28 06:44 | 21.26585 | 111.44453 | 25096 ft | 478 kts | 47° |
| 2026-04-28 06:45 | 21.28746 | 111.47165 | 25304 ft | 479 kts | 47° |
| 2026-04-28 06:45 | 21.30888 | 111.49848 | 25517 ft | 481 kts | 47° |
| 2026-04-28 06:45 | 21.33065 | 111.52571 | 25726 ft | 482 kts | 47° |
| 2026-04-28 06:45 | 21.35255 | 111.55307 | 25958 ft | 483 kts | 47° |
| 2026-04-28 06:46 | 21.37446 | 111.58047 | 26183 ft | 484 kts | 47° |
| 2026-04-28 06:46 | 21.39636 | 111.60794 | 26389 ft | 486 kts | 47° |
| 2026-04-28 06:46 | 21.41833 | 111.63558 | 26572 ft | 487 kts | 47° |
| 2026-04-28 06:46 | 21.44036 | 111.66331 | 26776 ft | 489 kts | 47° |
| 2026-04-28 06:47 | 21.46241 | 111.69105 | 26956 ft | 490 kts | 47° |
| 2026-04-28 06:47 | 21.48459 | 111.71896 | 27148 ft | 491 kts | 47° |
| 2026-04-28 06:47 | 21.50682 | 111.74693 | 27323 ft | 493 kts | 47° |
| 2026-04-28 06:47 | 21.52875 | 111.77459 | 27530 ft | 494 kts | 47° |
| 2026-04-28 06:48 | 21.55103 | 111.80283 | 27699 ft | 496 kts | 49° |
| 2026-04-28 06:48 | 21.57080 | 111.83334 | 27861 ft | 501 kts | 58° |
| 2026-04-28 06:48 | 21.58628 | 111.86695 | 28041 ft | 504 kts | 65° |
| 2026-04-28 06:48 | 21.60008 | 111.90164 | 28221 ft | 506 kts | 65° |
| 2026-04-28 06:49 | 21.61394 | 111.93636 | 28461 ft | 506 kts | 65° |
| 2026-04-28 06:49 | 21.62789 | 111.97116 | 28656 ft | 507 kts | 65° |
| 2026-04-28 06:49 | 21.64190 | 112.00598 | 28850 ft | 508 kts | 65° |
| 2026-04-28 06:49 | 21.65591 | 112.04082 | 29092 ft | 508 kts | 65° |
| 2026-04-28 06:50 | 21.66969 | 112.07514 | 29346 ft | 507 kts | 65° |
| 2026-04-28 06:50 | 21.68366 | 112.10999 | 29593 ft | 507 kts | 65° |
| 2026-04-28 06:50 | 21.69753 | 112.14474 | 29845 ft | 506 kts | 65° |
| 2026-04-28 06:50 | 21.71136 | 112.17946 | 30095 ft | 505 kts | 65° |
| 2026-04-28 06:51 | 21.72517 | 112.21417 | 30322 ft | 504 kts | 65° |
| 2026-04-28 06:51 | 21.73895 | 112.24877 | 30509 ft | 504 kts | 65° |
| 2026-04-28 06:51 | 21.75272 | 112.28335 | 30711 ft | 503 kts | 65° |
| 2026-04-28 06:51 | 21.76651 | 112.31800 | 30908 ft | 503 kts | 65° |
| 2026-04-28 06:52 | 21.78030 | 112.35257 | 31107 ft | 503 kts | 65° |
| 2026-04-28 06:52 | 21.79407 | 112.38711 | 31302 ft | 502 kts | 65° |
| 2026-04-28 06:52 | 21.80762 | 112.42120 | 31488 ft | 502 kts | 65° |
| 2026-04-28 06:52 | 21.82131 | 112.45580 | 31696 ft | 502 kts | 65° |
| 2026-04-28 06:53 | 21.83498 | 112.49035 | 31864 ft | 502 kts | 65° |
| 2026-04-28 06:53 | 21.84867 | 112.52499 | 32033 ft | 503 kts | 65° |
| 2026-04-28 06:53 | 21.86237 | 112.55961 | 32217 ft | 503 kts | 65° |
| 2026-04-28 06:53 | 21.87619 | 112.59416 | 32404 ft | 503 kts | 65° |
| 2026-04-28 06:54 | 21.89017 | 112.62867 | 32586 ft | 503 kts | 64° |
| 2026-04-28 06:54 | 21.90403 | 112.66267 | 32757 ft | 503 kts | 64° |
| 2026-04-28 06:54 | 21.91809 | 112.69713 | 32921 ft | 503 kts | 64° |
| 2026-04-28 06:55 | 21.94586 | 112.76572 | 32958 ft | 498 kts | 64° |
| 2026-04-28 06:55 | 21.97332 | 112.83409 | 32960 ft | 497 kts | 65° |
| 2026-04-28 06:56 | 22.00024 | 112.90273 | 32962 ft | 497 kts | 65° |
| 2026-04-28 06:56 | 22.02672 | 112.97110 | 32961 ft | 497 kts | 65° |
| 2026-04-28 06:57 | 22.05367 | 113.03969 | 32981 ft | 497 kts | 64° |
| 2026-04-28 06:57 | 22.08207 | 113.10763 | 32971 ft | 497 kts | 63° |
| 2026-04-28 06:58 | 22.11083 | 113.17540 | 32970 ft | 497 kts | 63° |
| 2026-04-28 06:58 | 22.13923 | 113.24343 | 32969 ft | 497 kts | 64° |
| 2026-04-28 06:59 | 22.16569 | 113.31187 | 32973 ft | 498 kts | 66° |
| 2026-04-28 06:59 | 22.19071 | 113.38158 | 32976 ft | 499 kts | 67° |
| 2026-04-28 07:00 | 22.21742 | 113.45059 | 32971 ft | 496 kts | 58° |
| 2026-04-28 07:00 | 22.25854 | 113.50939 | 32985 ft | 489 kts | 43° |
| 2026-04-28 07:01 | 22.30487 | 113.56260 | 32982 ft | 490 kts | 43° |
| 2026-04-28 07:01 | 22.35132 | 113.61667 | 32981 ft | 491 kts | 44° |
| 2026-04-28 07:02 | 22.39778 | 113.67080 | 32981 ft | 491 kts | 44° |
| 2026-04-28 07:02 | 22.44438 | 113.72489 | 32984 ft | 492 kts | 44° |
| 2026-04-28 07:03 | 22.49061 | 113.77867 | 32973 ft | 492 kts | 44° |
| 2026-04-28 07:03 | 22.53729 | 113.83306 | 33015 ft | 493 kts | 44° |
| 2026-04-28 07:04 | 22.58393 | 113.88744 | 33018 ft | 493 kts | 44° |
| 2026-04-28 07:04 | 22.63058 | 113.94187 | 33015 ft | 493 kts | 44° |
| 2026-04-28 07:05 | 22.67640 | 113.99703 | 33005 ft | 495 kts | 51° |
| 2026-04-28 07:05 | 22.70825 | 114.06264 | 32999 ft | 500 kts | 71° |
| 2026-04-28 07:05 | 22.71650 | 114.09911 | 32985 ft | 500 kts | 82° |
| 2026-04-28 07:06 | 22.72061 | 114.13661 | 32978 ft | 501 kts | 84° |
| 2026-04-28 07:06 | 22.72839 | 114.21169 | 32971 ft | 503 kts | 83° |
| 2026-04-28 07:07 | 22.73616 | 114.28652 | 32979 ft | 503 kts | 83° |
| 2026-04-28 07:07 | 22.74402 | 114.36190 | 33002 ft | 504 kts | 84° |
| 2026-04-28 07:08 | 22.75173 | 114.43719 | 33001 ft | 503 kts | 84° |
| 2026-04-28 07:08 | 22.75945 | 114.51251 | 33003 ft | 503 kts | 84° |
| 2026-04-28 07:09 | 22.76712 | 114.58781 | 33009 ft | 503 kts | 84° |
| 2026-04-28 07:09 | 22.77470 | 114.66270 | 33009 ft | 503 kts | 84° |
| 2026-04-28 07:10 | 22.78238 | 114.73786 | 33007 ft | 502 kts | 84° |
| 2026-04-28 07:10 | 22.79018 | 114.81305 | 33008 ft | 502 kts | 84° |
| 2026-04-28 07:11 | 22.79824 | 114.88823 | 33012 ft | 502 kts | 84° |
| 2026-04-28 07:11 | 22.80624 | 114.96291 | 33010 ft | 502 kts | 84° |
| 2026-04-28 07:12 | 22.81422 | 115.03803 | 33006 ft | 502 kts | 84° |
| 2026-04-28 07:12 | 22.82201 | 115.11320 | 33005 ft | 502 kts | 84° |
| 2026-04-28 07:13 | 22.82983 | 115.18840 | 33001 ft | 502 kts | 84° |
| 2026-04-28 07:13 | 22.83772 | 115.26365 | 33005 ft | 502 kts | 84° |
| 2026-04-28 07:14 | 22.84547 | 115.33838 | 33001 ft | 502 kts | 84° |
| 2026-04-28 07:14 | 22.85321 | 115.41359 | 33005 ft | 502 kts | 85° |
| 2026-04-28 07:15 | 22.86090 | 115.48880 | 33029 ft | 502 kts | 85° |
| 2026-04-28 07:15 | 22.86858 | 115.56401 | 33026 ft | 502 kts | 85° |
| 2026-04-28 07:16 | 22.87613 | 115.63872 | 33023 ft | 501 kts | 85° |
| 2026-04-28 07:16 | 22.88372 | 115.71380 | 33017 ft | 501 kts | 85° |
| 2026-04-28 07:17 | 22.89131 | 115.78893 | 33017 ft | 501 kts | 85° |
| 2026-04-28 07:17 | 22.89880 | 115.86415 | 33018 ft | 501 kts | 85° |
| 2026-04-28 07:18 | 22.90630 | 115.93877 | 33019 ft | 501 kts | 85° |
| 2026-04-28 07:18 | 22.91426 | 116.01392 | 33010 ft | 502 kts | 85° |
| 2026-04-28 07:19 | 22.92222 | 116.08909 | 33015 ft | 502 kts | 85° |
| 2026-04-28 07:19 | 22.93001 | 116.16430 | 33021 ft | 502 kts | 85° |
| 2026-04-28 07:20 | 22.93764 | 116.23952 | 33017 ft | 501 kts | 85° |
| 2026-04-28 07:20 | 22.95043 | 116.31319 | 33016 ft | 503 kts | 70° |
| 2026-04-28 07:21 | 22.98387 | 116.37926 | 33016 ft | 501 kts | 50° |
| 2026-04-28 07:21 | 23.00748 | 116.40691 | 33008 ft | 498 kts | 39° |
| 2026-04-28 07:21 | 23.03446 | 116.43032 | 33013 ft | 496 kts | 34° |
| 2026-04-28 07:22 | 23.11707 | 116.49844 | 33016 ft | 498 kts | 35° |
| 2026-04-28 07:22 | 23.17175 | 116.54380 | 33018 ft | 498 kts | 35° |
| 2026-04-28 07:23 | 23.22682 | 116.58947 | 33015 ft | 498 kts | 35° |
| 2026-04-28 07:23 | 23.28196 | 116.63526 | 33006 ft | 499 kts | 35° |
| 2026-04-28 07:24 | 23.33732 | 116.68116 | 32990 ft | 502 kts | 35° |
| 2026-04-28 07:24 | 23.39256 | 116.72702 | 32990 ft | 503 kts | 35° |
| 2026-04-28 07:25 | 23.44721 | 116.77476 | 32991 ft | 505 kts | 43° |
| 2026-04-28 07:25 | 23.47184 | 116.80210 | 32587 ft | 505 kts | 45° |
| 2026-04-28 07:25 | 23.49616 | 116.82960 | 32117 ft | 502 kts | 45° |
| 2026-04-28 07:26 | 23.52027 | 116.85711 | 31635 ft | 501 kts | 45° |
| 2026-04-28 07:26 | 23.54426 | 116.88456 | 31157 ft | 500 kts | 45° |
| 2026-04-28 07:26 | 23.56827 | 116.91204 | 30692 ft | 500 kts | 45° |
| 2026-04-28 07:26 | 23.59228 | 116.93945 | 30230 ft | 500 kts | 45° |
| 2026-04-28 07:27 | 23.61632 | 116.96684 | 29743 ft | 500 kts | 45° |
| 2026-04-28 07:27 | 23.64003 | 116.99382 | 29228 ft | 500 kts | 45° |
| 2026-04-28 07:27 | 23.66414 | 117.02120 | 28709 ft | 500 kts | 45° |
| 2026-04-28 07:27 | 23.68829 | 117.04863 | 28193 ft | 500 kts | 45° |
| 2026-04-28 07:28 | 23.71227 | 117.07590 | 27602 ft | 498 kts | 45° |
| 2026-04-28 07:28 | 23.73614 | 117.10310 | 26997 ft | 495 kts | 45° |
| 2026-04-28 07:28 | 23.75989 | 117.13018 | 26394 ft | 492 kts | 45° |
| 2026-04-28 07:28 | 23.78398 | 117.15650 | 25804 ft | 488 kts | 42° |
| 2026-04-28 07:29 | 23.80873 | 117.18159 | 25222 ft | 484 kts | 40° |
| 2026-04-28 07:29 | 23.83368 | 117.20557 | 24647 ft | 473 kts | 38° |
| 2026-04-28 07:29 | 23.85792 | 117.22827 | 24103 ft | 466 kts | 38° |
| 2026-04-28 07:29 | 23.88242 | 117.25123 | 23550 ft | 462 kts | 38° |
| 2026-04-28 07:30 | 23.90656 | 117.27411 | 22919 ft | 457 kts | 39° |
| 2026-04-28 07:30 | 23.93028 | 117.29696 | 22280 ft | 452 kts | 39° |
| 2026-04-28 07:30 | 23.95366 | 117.31975 | 21677 ft | 451 kts | 40° |
| 2026-04-28 07:30 | 23.97697 | 117.34265 | 21064 ft | 449 kts | 40° |
| 2026-04-28 07:31 | 24.00009 | 117.36547 | 20460 ft | 447 kts | 40° |
| 2026-04-28 07:31 | 24.02284 | 117.38795 | 19879 ft | 446 kts | 40° |
| 2026-04-28 07:31 | 24.04583 | 117.41064 | 19302 ft | 445 kts | 40° |
| 2026-04-28 07:31 | 24.06879 | 117.43322 | 18729 ft | 442 kts | 40° |
| 2026-04-28 07:32 | 24.09158 | 117.45557 | 18172 ft | 438 kts | 40° |
| 2026-04-28 07:32 | 24.11424 | 117.47779 | 17626 ft | 435 kts | 40° |
| 2026-04-28 07:32 | 24.13609 | 117.49949 | 17124 ft | 433 kts | 43° |
| 2026-04-28 07:32 | 24.15659 | 117.52352 | 16627 ft | 430 kts | 46° |
| 2026-04-28 07:33 | 24.17666 | 117.54757 | 16137 ft | 426 kts | 46° |
| 2026-04-28 07:33 | 24.19660 | 117.57141 | 15646 ft | 423 kts | 46° |
| 2026-04-28 07:33 | 24.21611 | 117.59472 | 15192 ft | 419 kts | 47° |
| 2026-04-28 07:33 | 24.23571 | 117.61816 | 14710 ft | 415 kts | 47° |
| 2026-04-28 07:34 | 24.25510 | 117.64137 | 14255 ft | 411 kts | 47° |
| 2026-04-28 07:34 | 24.27429 | 117.66440 | 13794 ft | 406 kts | 47° |
| 2026-04-28 07:34 | 24.29320 | 117.68714 | 13291 ft | 402 kts | 47° |
| 2026-04-28 07:34 | 24.31193 | 117.70968 | 12840 ft | 397 kts | 47° |
| 2026-04-28 07:35 | 24.33033 | 117.73184 | 12678 ft | 391 kts | 47° |
| 2026-04-28 07:35 | 24.34868 | 117.75393 | 12714 ft | 392 kts | 47° |
| 2026-04-28 07:35 | 24.36657 | 117.77548 | 12691 ft | 393 kts | 47° |
| 2026-04-28 07:35 | 24.38520 | 117.79792 | 12193 ft | 392 kts | 48° |
| 2026-04-28 07:36 | 24.40347 | 117.81993 | 11707 ft | 388 kts | 47° |
| 2026-04-28 07:36 | 24.42128 | 117.84135 | 11289 ft | 368 kts | 47° |
| 2026-04-28 07:36 | 24.43799 | 117.86144 | 10920 ft | 347 kts | 47° |
| 2026-04-28 07:36 | 24.45380 | 117.88049 | 10563 ft | 328 kts | 47° |
| 2026-04-28 07:37 | 24.46851 | 117.89825 | 10214 ft | 312 kts | 47° |
| 2026-04-28 07:37 | 24.48286 | 117.91558 | 9867 ft | 303 kts | 47° |
| 2026-04-28 07:37 | 24.49700 | 117.93267 | 9495 ft | 301 kts | 47° |
| 2026-04-28 07:37 | 24.51083 | 117.94939 | 9110 ft | 299 kts | 48° |
| 2026-04-28 07:38 | 24.52469 | 117.96614 | 8757 ft | 299 kts | 48° |
| 2026-04-28 07:38 | 24.53875 | 117.98314 | 8378 ft | 299 kts | 48° |
| 2026-04-28 07:38 | 24.55271 | 118.00003 | 8011 ft | 298 kts | 48° |
| 2026-04-28 07:38 | 24.56663 | 118.01689 | 7645 ft | 298 kts | 47° |
| 2026-04-28 07:39 | 24.58084 | 118.03352 | 7280 ft | 297 kts | 46° |
| 2026-04-28 07:39 | 24.59498 | 118.04955 | 6922 ft | 288 kts | 46° |
| 2026-04-28 07:39 | 24.60898 | 118.06522 | 6561 ft | 286 kts | 46° |
| 2026-04-28 07:39 | 24.62282 | 118.08074 | 6214 ft | 283 kts | 45° |
| 2026-04-28 07:40 | 24.63624 | 118.09587 | 5923 ft | 278 kts | 45° |
| 2026-04-28 07:40 | 24.64965 | 118.11110 | 5904 ft | 279 kts | 46° |
| 2026-04-28 07:40 | 24.66327 | 118.12651 | 5898 ft | 282 kts | 45° |
| 2026-04-28 07:40 | 24.67695 | 118.14197 | 5679 ft | 284 kts | 46° |
| 2026-04-28 07:41 | 24.69071 | 118.15754 | 5358 ft | 280 kts | 46° |
| 2026-04-28 07:41 | 24.70393 | 118.17255 | 5024 ft | 266 kts | 46° |
| 2026-04-28 07:41 | 24.71654 | 118.18684 | 4731 ft | 258 kts | 46° |
| 2026-04-28 07:41 | 24.72889 | 118.20084 | 4487 ft | 254 kts | 46° |
| 2026-04-28 07:42 | 24.73890 | 118.21631 | 4264 ft | 248 kts | 73° |
| 2026-04-28 07:42 | 24.74164 | 118.23454 | 3961 ft | 242 kts | 91° |
| 2026-04-28 07:42 | 24.74109 | 118.25232 | 3930 ft | 228 kts | 105° |
| 2026-04-28 07:42 | 24.73365 | 118.26639 | 3722 ft | 207 kts | 144° |
| 2026-04-28 07:43 | 24.72174 | 118.27497 | 3535 ft | 205 kts | 152° |
| 2026-04-28 07:43 | 24.70916 | 118.28242 | 3315 ft | 207 kts | 154° |
| 2026-04-28 07:43 | 24.69670 | 118.29014 | 3082 ft | 200 kts | 151° |
| 2026-04-28 07:43 | 24.68522 | 118.29692 | 2991 ft | 176 kts | 165° |
| 2026-04-28 07:44 | 24.67395 | 118.29787 | 2989 ft | 157 kts | 189° |
| 2026-04-28 07:44 | 24.66405 | 118.29361 | 2990 ft | 153 kts | 212° |
| 2026-04-28 07:44 | 24.65665 | 118.28545 | 3023 ft | 149 kts | 227° |
| 2026-04-28 07:44 | 24.65015 | 118.27629 | 3004 ft | 147 kts | 230° |
| 2026-04-28 07:45 | 24.64387 | 118.26746 | 2837 ft | 144 kts | 227° |
| 2026-04-28 07:45 | 24.63770 | 118.25880 | 2677 ft | 143 kts | 228° |
| 2026-04-28 07:45 | 24.63158 | 118.25018 | 2493 ft | 143 kts | 229° |
| 2026-04-28 07:45 | 24.62544 | 118.24158 | 2329 ft | 143 kts | 229° |
| 2026-04-28 07:46 | 24.61939 | 118.23310 | 2149 ft | 145 kts | 230° |
| 2026-04-28 07:46 | 24.61317 | 118.22438 | 1940 ft | 144 kts | 227° |
| 2026-04-28 07:46 | 24.60705 | 118.21581 | 1730 ft | 143 kts | 228° |
| 2026-04-28 07:46 | 24.60093 | 118.20723 | 1548 ft | 140 kts | 227° |
| 2026-04-28 07:47 | 24.59488 | 118.19874 | 1374 ft | 142 kts | 227° |
| 2026-04-28 07:47 | 24.58881 | 118.19024 | 1176 ft | 142 kts | 227° |
| 2026-04-28 07:47 | 24.58265 | 118.18160 | 1000 ft | 143 kts | 230° |
| 2026-04-28 07:47 | 24.57650 | 118.17299 | 810 ft | 146 kts | 231° |
| 2026-04-28 07:48 | 24.57025 | 118.16424 | 641 ft | 148 kts | 231° |
| 2026-04-28 07:48 | 24.56384 | 118.15534 | 421 ft | 149 kts | 231° |
| 2026-04-28 07:48 | 24.55751 | 118.14639 | 246 ft | 149 kts | 232° |
| 2026-04-28 07:48 | 24.55104 | 118.13744 | 51 ft | 149 kts | 232° |
| 2026-04-28 07:49 | 24.54558 | 118.12968 | 47 ft | 105 kts | 232° |
| 2026-04-28 07:49 | 24.54214 | 118.12487 | 50 ft | 55 kts | 232° |
| 2026-04-28 07:49 | 24.54047 | 118.12262 | 55 ft | 26 kts | 224° |
| 2026-04-28 07:49 | 24.53908 | 118.12171 | 56 ft | 21 kts | 202° |
| 2026-04-28 07:50 | 24.53846 | 118.12149 | 56 ft | 9 kts | 188° |
| 2026-04-28 07:50 | 24.53792 | 118.12167 | 57 ft | 8 kts | 137° |
| 2026-04-28 07:50 | 24.53751 | 118.12213 | 53 ft | 9 kts | 138° |
| 2026-04-28 07:50 | 24.53702 | 118.12256 | 57 ft | 9 kts | 134° |
| 2026-04-28 07:51 | 24.53707 | 118.12321 | 56 ft | 10 kts | 54° |
| 2026-04-28 07:51 | 24.53751 | 118.12382 | 57 ft | 11 kts | 52° |
| 2026-04-28 07:51 | 24.53800 | 118.12451 | 51 ft | 12 kts | 52° |
| 2026-04-28 07:51 | 24.53829 | 118.12492 | 63 ft | 4 kts | 52° |
| 2026-04-28 07:52 | 24.53833 | 118.12522 | 55 ft | 4 kts | 98° |
| 2026-04-28 07:52 | 24.53813 | 118.12551 | 54 ft | 5 kts | 140° |
| 2026-04-28 07:52 | 24.53789 | 118.12570 | 52 ft | 0 kts | 143° |
| 2026-04-28 07:52 | 24.53786 | 118.12572 | 54 ft | 1 kts | 145° |
| 2026-04-28 07:53 | 24.53784 | 118.12573 | 56 ft | 0 kts | 146° |